sensor_id;sensor_type;location;lat;lon;timestamp;temperature;humidity
20041;DHT22;10181;48.072;9.884;2023-12-20T00:00:05;3.90;99.90
20041;DHT22;10181;48.072;9.884;2023-12-20T00:02:31;3.90;99.90
20041;DHT22;10181;48.072;9.884;2023-12-20T00:04:57;3.90;99.90
20041;DHT22;10181;48.072;9.884;2023-12-20T00:07:22;3.90;99.90
20041;DHT22;10181;48.072;9.884;2023-12-20T00:09:48;3.90;99.90
20041;DHT22;10181;48.072;9.884;2023-12-20T00:12:13;3.90;99.90
20041;DHT22;10181;48.072;9.884;2023-12-20T00:14:39;3.90;99.90
20041;DHT22;10181;48.072;9.884;2023-12-20T00:17:05;3.90;99.90
20041;DHT22;10181;48.072;9.884;2023-12-20T00:19:30;3.90;99.90
20041;DHT22;10181;48.072;9.884;2023-12-20T00:21:56;3.80;99.90
20041;DHT22;10181;48.072;9.884;2023-12-20T00:24:21;3.80;99.90
20041;DHT22;10181;48.072;9.884;2023-12-20T00:26:47;3.80;99.90
20041;DHT22;10181;48.072;9.884;2023-12-20T00:29:13;3.80;99.90
20041;DHT22;10181;48.072;9.884;2023-12-20T00:31:38;3.80;99.90
20041;DHT22;10181;48.072;9.884;2023-12-20T00:34:04;3.80;99.90
20041;DHT22;10181;48.072;9.884;2023-12-20T00:36:29;3.80;99.90
20041;DHT22;10181;48.072;9.884;2023-12-20T00:38:55;3.70;99.90
20041;DHT22;10181;48.072;9.884;2023-12-20T00:41:20;3.70;99.90
20041;DHT22;10181;48.072;9.884;2023-12-20T00:43:46;3.60;99.90
20041;DHT22;10181;48.072;9.884;2023-12-20T00:46:12;3.60;99.90
20041;DHT22;10181;48.072;9.884;2023-12-20T00:48:37;3.60;99.90
20041;DHT22;10181;48.072;9.884;2023-12-20T00:51:03;3.60;99.90
20041;DHT22;10181;48.072;9.884;2023-12-20T00:53:29;3.70;99.90
20041;DHT22;10181;48.072;9.884;2023-12-20T00:55:55;3.70;99.90
20041;DHT22;10181;48.072;9.884;2023-12-20T00:58:20;3.70;99.90
20041;DHT22;10181;48.072;9.884;2023-12-20T01:00:46;3.70;99.90
20041;DHT22;10181;48.072;9.884;2023-12-20T01:03:12;3.60;99.90
20041;DHT22;10181;48.072;9.884;2023-12-20T01:05:37;3.60;99.90
20041;DHT22;10181;48.072;9.884;2023-12-20T01:08:03;3.60;99.90
20041;DHT22;10181;48.072;9.884;2023-12-20T01:10:29;3.60;99.90
20041;DHT22;10181;48.072;9.884;2023-12-20T01:12:55;3.60;99.90
20041;DHT22;10181;48.072;9.884;2023-12-20T01:15:20;3.60;99.90
20041;DHT22;10181;48.072;9.884;2023-12-20T01:17:46;3.60;99.90
20041;DHT22;10181;48.072;9.884;2023-12-20T01:20:12;3.70;99.90
20041;DHT22;10181;48.072;9.884;2023-12-20T01:22:38;3.70;99.90
20041;DHT22;10181;48.072;9.884;2023-12-20T01:25:04;3.70;99.90
20041;DHT22;10181;48.072;9.884;2023-12-20T01:27:29;3.80;99.90
20041;DHT22;10181;48.072;9.884;2023-12-20T01:29:56;3.80;99.90
20041;DHT22;10181;48.072;9.884;2023-12-20T01:32:22;3.80;99.90
20041;DHT22;10181;48.072;9.884;2023-12-20T01:34:47;3.70;99.90
20041;DHT22;10181;48.072;9.884;2023-12-20T01:37:14;3.70;99.90
20041;DHT22;10181;48.072;9.884;2023-12-20T01:39:39;3.70;99.90
20041;DHT22;10181;48.072;9.884;2023-12-20T01:42:05;3.70;99.90
20041;DHT22;10181;48.072;9.884;2023-12-20T01:44:30;3.70;99.90
20041;DHT22;10181;48.072;9.884;2023-12-20T01:46:56;3.70;99.90
20041;DHT22;10181;48.072;9.884;2023-12-20T01:49:23;3.80;99.90
20041;DHT22;10181;48.072;9.884;2023-12-20T01:51:49;3.80;99.90
20041;DHT22;10181;48.072;9.884;2023-12-20T01:54:15;3.80;99.90
20041;DHT22;10181;48.072;9.884;2023-12-20T01:56:41;3.80;99.90
20041;DHT22;10181;48.072;9.884;2023-12-20T01:59:08;3.90;99.90
20041;DHT22;10181;48.072;9.884;2023-12-20T02:01:35;3.90;99.90
20041;DHT22;10181;48.072;9.884;2023-12-20T02:04:02;3.90;99.90
20041;DHT22;10181;48.072;9.884;2023-12-20T02:06:31;3.90;99.90
20041;DHT22;10181;48.072;9.884;2023-12-20T02:08:58;3.90;99.90
20041;DHT22;10181;48.072;9.884;2023-12-20T02:11:25;4.00;99.90
20041;DHT22;10181;48.072;9.884;2023-12-20T02:13:51;4.00;99.90
20041;DHT22;10181;48.072;9.884;2023-12-20T02:16:17;3.90;99.90
20041;DHT22;10181;48.072;9.884;2023-12-20T02:18:43;4.00;99.90
20041;DHT22;10181;48.072;9.884;2023-12-20T02:21:10;4.00;99.90
20041;DHT22;10181;48.072;9.884;2023-12-20T02:23:35;4.00;99.90
20041;DHT22;10181;48.072;9.884;2023-12-20T02:26:02;4.00;99.90
20041;DHT22;10181;48.072;9.884;2023-12-20T02:28:28;4.00;99.90
20041;DHT22;10181;48.072;9.884;2023-12-20T02:30:54;4.00;99.90
20041;DHT22;10181;48.072;9.884;2023-12-20T02:33:20;3.90;99.90
20041;DHT22;10181;48.072;9.884;2023-12-20T02:35:45;3.90;99.90
20041;DHT22;10181;48.072;9.884;2023-12-20T02:38:11;3.90;99.90
20041;DHT22;10181;48.072;9.884;2023-12-20T02:40:37;3.90;99.90
20041;DHT22;10181;48.072;9.884;2023-12-20T02:43:02;3.90;99.90
20041;DHT22;10181;48.072;9.884;2023-12-20T02:45:28;4.00;99.90
20041;DHT22;10181;48.072;9.884;2023-12-20T02:47:54;4.00;99.90
20041;DHT22;10181;48.072;9.884;2023-12-20T02:50:19;4.00;99.90
20041;DHT22;10181;48.072;9.884;2023-12-20T02:52:45;4.00;99.90
20041;DHT22;10181;48.072;9.884;2023-12-20T02:55:11;4.10;99.90
20041;DHT22;10181;48.072;9.884;2023-12-20T02:57:36;4.00;99.90
20041;DHT22;10181;48.072;9.884;2023-12-20T03:00:08;4.10;99.90
20041;DHT22;10181;48.072;9.884;2023-12-20T03:02:34;4.10;99.90
20041;DHT22;10181;48.072;9.884;2023-12-20T03:05:00;4.20;99.90
20041;DHT22;10181;48.072;9.884;2023-12-20T03:07:26;4.20;99.90
20041;DHT22;10181;48.072;9.884;2023-12-20T03:09:52;4.10;99.90
20041;DHT22;10181;48.072;9.884;2023-12-20T03:12:17;4.20;99.90
20041;DHT22;10181;48.072;9.884;2023-12-20T03:14:43;4.20;99.90
20041;DHT22;10181;48.072;9.884;2023-12-20T03:17:10;4.20;99.90
20041;DHT22;10181;48.072;9.884;2023-12-20T03:19:35;4.30;99.90
20041;DHT22;10181;48.072;9.884;2023-12-20T03:22:01;4.30;99.90
20041;DHT22;10181;48.072;9.884;2023-12-20T03:24:27;4.30;99.90
20041;DHT22;10181;48.072;9.884;2023-12-20T03:26:52;4.40;99.90
20041;DHT22;10181;48.072;9.884;2023-12-20T03:29:18;4.30;99.90
20041;DHT22;10181;48.072;9.884;2023-12-20T03:31:43;4.20;99.90
20041;DHT22;10181;48.072;9.884;2023-12-20T03:34:09;4.20;99.90
20041;DHT22;10181;48.072;9.884;2023-12-20T03:36:34;4.20;99.90
20041;DHT22;10181;48.072;9.884;2023-12-20T03:39:00;4.10;99.90
20041;DHT22;10181;48.072;9.884;2023-12-20T03:41:26;4.10;99.90
20041;DHT22;10181;48.072;9.884;2023-12-20T03:43:52;4.10;99.90
20041;DHT22;10181;48.072;9.884;2023-12-20T03:46:17;4.10;99.90
20041;DHT22;10181;48.072;9.884;2023-12-20T03:48:43;4.00;99.90
20041;DHT22;10181;48.072;9.884;2023-12-20T03:51:08;4.00;99.90
20041;DHT22;10181;48.072;9.884;2023-12-20T03:53:34;3.90;99.90
20041;DHT22;10181;48.072;9.884;2023-12-20T03:55:59;3.80;99.90
20041;DHT22;10181;48.072;9.884;2023-12-20T03:58:25;3.80;99.90
20041;DHT22;10181;48.072;9.884;2023-12-20T04:00:50;3.70;99.90
20041;DHT22;10181;48.072;9.884;2023-12-20T04:03:16;3.60;99.90
20041;DHT22;10181;48.072;9.884;2023-12-20T04:05:42;3.60;99.90
20041;DHT22;10181;48.072;9.884;2023-12-20T04:08:07;3.50;99.90
20041;DHT22;10181;48.072;9.884;2023-12-20T04:10:33;3.50;99.90
20041;DHT22;10181;48.072;9.884;2023-12-20T04:12:58;3.40;99.90
20041;DHT22;10181;48.072;9.884;2023-12-20T04:15:24;3.40;99.90
20041;DHT22;10181;48.072;9.884;2023-12-20T04:17:50;3.40;99.90
20041;DHT22;10181;48.072;9.884;2023-12-20T04:20:15;3.30;99.90
20041;DHT22;10181;48.072;9.884;2023-12-20T04:22:41;3.30;99.90
20041;DHT22;10181;48.072;9.884;2023-12-20T04:25:08;3.30;99.90
20041;DHT22;10181;48.072;9.884;2023-12-20T04:27:34;3.30;99.90
20041;DHT22;10181;48.072;9.884;2023-12-20T04:29:59;3.30;99.90
20041;DHT22;10181;48.072;9.884;2023-12-20T04:32:25;3.20;99.90
20041;DHT22;10181;48.072;9.884;2023-12-20T04:34:50;3.20;99.90
20041;DHT22;10181;48.072;9.884;2023-12-20T04:37:16;3.20;99.90
20041;DHT22;10181;48.072;9.884;2023-12-20T04:39:42;3.20;99.90
20041;DHT22;10181;48.072;9.884;2023-12-20T04:42:08;3.20;99.90
20041;DHT22;10181;48.072;9.884;2023-12-20T04:44:33;3.20;99.90
20041;DHT22;10181;48.072;9.884;2023-12-20T04:46:59;3.20;99.90
20041;DHT22;10181;48.072;9.884;2023-12-20T04:49:25;3.20;99.90
20041;DHT22;10181;48.072;9.884;2023-12-20T04:51:51;3.20;99.90
20041;DHT22;10181;48.072;9.884;2023-12-20T04:54:16;3.20;99.90
20041;DHT22;10181;48.072;9.884;2023-12-20T04:56:42;3.20;99.90
20041;DHT22;10181;48.072;9.884;2023-12-20T04:59:07;3.20;99.90
20041;DHT22;10181;48.072;9.884;2023-12-20T05:01:33;3.20;99.90
20041;DHT22;10181;48.072;9.884;2023-12-20T05:03:59;3.20;99.90
20041;DHT22;10181;48.072;9.884;2023-12-20T05:06:24;3.20;99.90
20041;DHT22;10181;48.072;9.884;2023-12-20T05:08:50;3.20;99.90
20041;DHT22;10181;48.072;9.884;2023-12-20T05:11:15;3.20;99.90
20041;DHT22;10181;48.072;9.884;2023-12-20T05:13:41;3.20;99.90
20041;DHT22;10181;48.072;9.884;2023-12-20T05:16:07;3.20;99.90
20041;DHT22;10181;48.072;9.884;2023-12-20T05:18:34;3.10;99.90
20041;DHT22;10181;48.072;9.884;2023-12-20T05:21:00;3.10;99.90
20041;DHT22;10181;48.072;9.884;2023-12-20T05:23:25;3.10;99.90
20041;DHT22;10181;48.072;9.884;2023-12-20T05:25:51;3.10;99.90
20041;DHT22;10181;48.072;9.884;2023-12-20T05:28:17;3.10;99.90
20041;DHT22;10181;48.072;9.884;2023-12-20T05:30:42;3.10;99.90
20041;DHT22;10181;48.072;9.884;2023-12-20T05:33:08;3.10;99.90
20041;DHT22;10181;48.072;9.884;2023-12-20T05:35:34;3.10;99.90
20041;DHT22;10181;48.072;9.884;2023-12-20T05:38:00;3.10;99.90
20041;DHT22;10181;48.072;9.884;2023-12-20T05:40:25;3.10;99.90
20041;DHT22;10181;48.072;9.884;2023-12-20T05:42:51;3.10;99.90
20041;DHT22;10181;48.072;9.884;2023-12-20T05:45:17;3.10;99.90
20041;DHT22;10181;48.072;9.884;2023-12-20T05:47:42;3.10;99.90
20041;DHT22;10181;48.072;9.884;2023-12-20T05:50:08;3.20;99.90
20041;DHT22;10181;48.072;9.884;2023-12-20T05:52:34;3.20;99.90
20041;DHT22;10181;48.072;9.884;2023-12-20T05:55:00;3.20;99.90
20041;DHT22;10181;48.072;9.884;2023-12-20T05:57:27;3.20;99.90
20041;DHT22;10181;48.072;9.884;2023-12-20T05:59:52;3.20;99.90
20041;DHT22;10181;48.072;9.884;2023-12-20T06:02:18;3.20;99.90
20041;DHT22;10181;48.072;9.884;2023-12-20T06:04:44;3.20;99.90
20041;DHT22;10181;48.072;9.884;2023-12-20T06:07:14;3.20;99.90
20041;DHT22;10181;48.072;9.884;2023-12-20T06:09:39;3.20;99.90
20041;DHT22;10181;48.072;9.884;2023-12-20T06:12:05;3.30;99.90
20041;DHT22;10181;48.072;9.884;2023-12-20T06:14:31;3.30;99.90
20041;DHT22;10181;48.072;9.884;2023-12-20T06:16:57;3.30;99.90
20041;DHT22;10181;48.072;9.884;2023-12-20T06:19:22;3.30;99.90
20041;DHT22;10181;48.072;9.884;2023-12-20T06:21:48;3.30;99.90
20041;DHT22;10181;48.072;9.884;2023-12-20T06:24:14;3.30;99.90
20041;DHT22;10181;48.072;9.884;2023-12-20T06:26:39;3.30;99.90
20041;DHT22;10181;48.072;9.884;2023-12-20T06:29:05;3.40;99.90
20041;DHT22;10181;48.072;9.884;2023-12-20T06:31:31;3.40;99.90
20041;DHT22;10181;48.072;9.884;2023-12-20T06:33:58;3.40;99.90
20041;DHT22;10181;48.072;9.884;2023-12-20T06:36:25;3.40;99.90
20041;DHT22;10181;48.072;9.884;2023-12-20T06:38:51;3.40;99.90
20041;DHT22;10181;48.072;9.884;2023-12-20T06:41:17;3.50;99.90
20041;DHT22;10181;48.072;9.884;2023-12-20T06:43:43;3.50;99.90
20041;DHT22;10181;48.072;9.884;2023-12-20T06:46:08;3.50;99.90
20041;DHT22;10181;48.072;9.884;2023-12-20T06:48:34;3.60;99.90
20041;DHT22;10181;48.072;9.884;2023-12-20T06:51:01;3.60;99.90
20041;DHT22;10181;48.072;9.884;2023-12-20T06:53:29;3.60;99.90
20041;DHT22;10181;48.072;9.884;2023-12-20T06:55:55;3.60;99.90
20041;DHT22;10181;48.072;9.884;2023-12-20T06:58:22;3.70;99.90
20041;DHT22;10181;48.072;9.884;2023-12-20T07:00:50;3.70;99.90
20041;DHT22;10181;48.072;9.884;2023-12-20T07:03:17;3.70;99.90
20041;DHT22;10181;48.072;9.884;2023-12-20T07:05:43;3.70;99.90
20041;DHT22;10181;48.072;9.884;2023-12-20T07:08:09;3.70;99.90
20041;DHT22;10181;48.072;9.884;2023-12-20T07:10:35;3.80;99.90
20041;DHT22;10181;48.072;9.884;2023-12-20T07:13:01;3.80;99.90
20041;DHT22;10181;48.072;9.884;2023-12-20T07:15:26;3.80;99.90
20041;DHT22;10181;48.072;9.884;2023-12-20T07:17:52;3.80;99.90
20041;DHT22;10181;48.072;9.884;2023-12-20T07:20:18;3.80;99.90
20041;DHT22;10181;48.072;9.884;2023-12-20T07:22:43;3.80;99.90
20041;DHT22;10181;48.072;9.884;2023-12-20T07:25:09;3.80;99.90
20041;DHT22;10181;48.072;9.884;2023-12-20T07:27:36;3.80;99.90
20041;DHT22;10181;48.072;9.884;2023-12-20T07:30:01;3.90;99.90
20041;DHT22;10181;48.072;9.884;2023-12-20T07:32:27;3.90;99.90
20041;DHT22;10181;48.072;9.884;2023-12-20T07:34:52;3.90;99.90
20041;DHT22;10181;48.072;9.884;2023-12-20T07:37:19;4.00;99.90
20041;DHT22;10181;48.072;9.884;2023-12-20T07:39:44;4.00;99.90
20041;DHT22;10181;48.072;9.884;2023-12-20T07:42:10;4.00;99.90
20041;DHT22;10181;48.072;9.884;2023-12-20T07:44:36;4.00;99.90
20041;DHT22;10181;48.072;9.884;2023-12-20T07:47:02;4.00;99.90
20041;DHT22;10181;48.072;9.884;2023-12-20T07:49:27;4.10;99.90
20041;DHT22;10181;48.072;9.884;2023-12-20T07:51:53;4.10;99.90
20041;DHT22;10181;48.072;9.884;2023-12-20T07:54:19;4.10;99.90
20041;DHT22;10181;48.072;9.884;2023-12-20T07:56:46;4.10;99.90
20041;DHT22;10181;48.072;9.884;2023-12-20T07:59:11;4.00;99.90
20041;DHT22;10181;48.072;9.884;2023-12-20T08:01:37;4.00;99.90
20041;DHT22;10181;48.072;9.884;2023-12-20T08:04:03;4.00;99.90
20041;DHT22;10181;48.072;9.884;2023-12-20T08:06:28;4.10;99.90
20041;DHT22;10181;48.072;9.884;2023-12-20T08:08:54;4.10;99.90
20041;DHT22;10181;48.072;9.884;2023-12-20T08:11:19;4.10;99.90
20041;DHT22;10181;48.072;9.884;2023-12-20T08:13:45;4.20;99.90
20041;DHT22;10181;48.072;9.884;2023-12-20T08:16:11;4.20;99.90
20041;DHT22;10181;48.072;9.884;2023-12-20T08:18:39;4.20;99.90
20041;DHT22;10181;48.072;9.884;2023-12-20T08:21:04;4.20;99.90
20041;DHT22;10181;48.072;9.884;2023-12-20T08:23:33;4.20;99.90
20041;DHT22;10181;48.072;9.884;2023-12-20T08:25:58;4.20;99.90
20041;DHT22;10181;48.072;9.884;2023-12-20T08:28:24;4.20;99.90
20041;DHT22;10181;48.072;9.884;2023-12-20T08:30:49;4.30;99.90
20041;DHT22;10181;48.072;9.884;2023-12-20T08:33:18;4.30;99.90
20041;DHT22;10181;48.072;9.884;2023-12-20T08:35:44;4.30;99.90
20041;DHT22;10181;48.072;9.884;2023-12-20T08:38:10;4.30;99.90
20041;DHT22;10181;48.072;9.884;2023-12-20T08:40:35;4.30;99.90
20041;DHT22;10181;48.072;9.884;2023-12-20T08:43:01;4.40;99.90
20041;DHT22;10181;48.072;9.884;2023-12-20T08:45:26;4.40;99.90
20041;DHT22;10181;48.072;9.884;2023-12-20T08:47:52;4.40;99.90
20041;DHT22;10181;48.072;9.884;2023-12-20T08:50:18;4.40;99.90
20041;DHT22;10181;48.072;9.884;2023-12-20T08:52:43;4.50;99.90
20041;DHT22;10181;48.072;9.884;2023-12-20T08:55:09;4.40;99.90
20041;DHT22;10181;48.072;9.884;2023-12-20T08:57:38;4.40;99.90
20041;DHT22;10181;48.072;9.884;2023-12-20T09:00:04;4.40;99.90
20041;DHT22;10181;48.072;9.884;2023-12-20T09:02:30;4.40;99.90
20041;DHT22;10181;48.072;9.884;2023-12-20T09:04:56;4.50;99.90
20041;DHT22;10181;48.072;9.884;2023-12-20T09:07:25;4.50;99.90
20041;DHT22;10181;48.072;9.884;2023-12-20T09:09:52;4.60;99.90
20041;DHT22;10181;48.072;9.884;2023-12-20T09:12:18;4.70;99.90
20041;DHT22;10181;48.072;9.884;2023-12-20T09:14:45;4.70;99.90
20041;DHT22;10181;48.072;9.884;2023-12-20T09:17:11;4.70;99.90
20041;DHT22;10181;48.072;9.884;2023-12-20T09:19:37;4.70;99.90
20041;DHT22;10181;48.072;9.884;2023-12-20T09:22:03;4.80;99.90
20041;DHT22;10181;48.072;9.884;2023-12-20T09:24:30;4.80;99.90
20041;DHT22;10181;48.072;9.884;2023-12-20T09:26:56;4.80;99.90
20041;DHT22;10181;48.072;9.884;2023-12-20T09:29:21;4.80;99.90
20041;DHT22;10181;48.072;9.884;2023-12-20T09:31:47;4.90;99.90
20041;DHT22;10181;48.072;9.884;2023-12-20T09:34:15;4.90;99.90
20041;DHT22;10181;48.072;9.884;2023-12-20T09:36:41;4.90;99.90
20041;DHT22;10181;48.072;9.884;2023-12-20T09:39:13;5.00;99.90
20041;DHT22;10181;48.072;9.884;2023-12-20T09:41:43;5.00;99.90
20041;DHT22;10181;48.072;9.884;2023-12-20T09:44:14;5.00;99.90
20041;DHT22;10181;48.072;9.884;2023-12-20T09:46:43;5.00;99.90
20041;DHT22;10181;48.072;9.884;2023-12-20T09:49:10;5.00;99.90
20041;DHT22;10181;48.072;9.884;2023-12-20T09:51:36;5.00;99.90
20041;DHT22;10181;48.072;9.884;2023-12-20T09:54:05;5.10;99.90
20041;DHT22;10181;48.072;9.884;2023-12-20T09:56:31;5.10;99.90
20041;DHT22;10181;48.072;9.884;2023-12-20T09:58:57;5.20;99.90
20041;DHT22;10181;48.072;9.884;2023-12-20T10:01:24;5.20;99.90
20041;DHT22;10181;48.072;9.884;2023-12-20T10:03:51;5.20;99.90
20041;DHT22;10181;48.072;9.884;2023-12-20T10:06:19;5.10;99.90
20041;DHT22;10181;48.072;9.884;2023-12-20T10:08:45;5.30;99.90
20041;DHT22;10181;48.072;9.884;2023-12-20T10:11:11;5.20;99.90
20041;DHT22;10181;48.072;9.884;2023-12-20T10:13:40;5.10;99.90
20041;DHT22;10181;48.072;9.884;2023-12-20T10:16:06;5.20;99.90
20041;DHT22;10181;48.072;9.884;2023-12-20T10:18:35;5.20;99.90
20041;DHT22;10181;48.072;9.884;2023-12-20T10:21:01;5.20;99.90
20041;DHT22;10181;48.072;9.884;2023-12-20T10:23:28;5.20;99.90
20041;DHT22;10181;48.072;9.884;2023-12-20T10:26:01;5.30;99.90
20041;DHT22;10181;48.072;9.884;2023-12-20T10:28:28;5.40;99.90
20041;DHT22;10181;48.072;9.884;2023-12-20T10:30:59;5.50;99.90
20041;DHT22;10181;48.072;9.884;2023-12-20T10:33:26;5.50;99.90
20041;DHT22;10181;48.072;9.884;2023-12-20T10:35:52;5.60;99.90
20041;DHT22;10181;48.072;9.884;2023-12-20T10:38:18;5.60;99.90
20041;DHT22;10181;48.072;9.884;2023-12-20T10:40:45;5.60;99.90
20041;DHT22;10181;48.072;9.884;2023-12-20T10:43:12;5.60;99.90
20041;DHT22;10181;48.072;9.884;2023-12-20T10:45:37;5.60;99.90
20041;DHT22;10181;48.072;9.884;2023-12-20T10:48:03;5.70;99.90
20041;DHT22;10181;48.072;9.884;2023-12-20T10:50:30;5.70;99.90
20041;DHT22;10181;48.072;9.884;2023-12-20T10:52:57;5.60;99.90
20041;DHT22;10181;48.072;9.884;2023-12-20T10:55:24;5.70;99.90
20041;DHT22;10181;48.072;9.884;2023-12-20T10:57:51;5.70;99.90
20041;DHT22;10181;48.072;9.884;2023-12-20T11:00:18;5.70;99.90
20041;DHT22;10181;48.072;9.884;2023-12-20T11:02:44;5.70;99.90
20041;DHT22;10181;48.072;9.884;2023-12-20T11:07:59;5.60;99.90
20041;DHT22;10181;48.072;9.884;2023-12-20T11:10:37;5.60;99.90
20041;DHT22;10181;48.072;9.884;2023-12-20T11:13:21;5.50;99.90
20041;DHT22;10181;48.072;9.884;2023-12-20T11:15:48;5.60;99.90
20041;DHT22;10181;48.072;9.884;2023-12-20T11:18:15;5.60;99.90
20041;DHT22;10181;48.072;9.884;2023-12-20T11:20:41;5.60;99.90
20041;DHT22;10181;48.072;9.884;2023-12-20T11:23:10;5.60;99.90
20041;DHT22;10181;48.072;9.884;2023-12-20T11:25:52;5.60;99.90
20041;DHT22;10181;48.072;9.884;2023-12-20T11:28:22;5.50;99.90
20041;DHT22;10181;48.072;9.884;2023-12-20T11:30:53;5.50;99.90
20041;DHT22;10181;48.072;9.884;2023-12-20T11:33:24;5.50;99.90
20041;DHT22;10181;48.072;9.884;2023-12-20T11:35:50;5.50;99.90
20041;DHT22;10181;48.072;9.884;2023-12-20T11:38:16;5.60;99.90
20041;DHT22;10181;48.072;9.884;2023-12-20T11:40:42;5.50;99.90
20041;DHT22;10181;48.072;9.884;2023-12-20T11:43:09;5.50;99.90
20041;DHT22;10181;48.072;9.884;2023-12-20T11:45:34;5.50;99.90
20041;DHT22;10181;48.072;9.884;2023-12-20T11:48:01;5.50;99.90
20041;DHT22;10181;48.072;9.884;2023-12-20T11:50:28;5.40;99.90
20041;DHT22;10181;48.072;9.884;2023-12-20T11:52:54;5.30;99.90
20041;DHT22;10181;48.072;9.884;2023-12-20T11:55:21;5.20;99.90
20041;DHT22;10181;48.072;9.884;2023-12-20T11:57:47;5.20;99.90
20041;DHT22;10181;48.072;9.884;2023-12-20T12:00:13;5.20;99.90
20041;DHT22;10181;48.072;9.884;2023-12-20T12:02:39;5.20;99.90
20041;DHT22;10181;48.072;9.884;2023-12-20T12:05:05;5.10;99.90
20041;DHT22;10181;48.072;9.884;2023-12-20T12:07:31;5.00;99.90
20041;DHT22;10181;48.072;9.884;2023-12-20T12:09:57;4.90;99.90
20041;DHT22;10181;48.072;9.884;2023-12-20T12:12:24;4.80;99.90
20041;DHT22;10181;48.072;9.884;2023-12-20T12:14:50;4.70;99.90
20041;DHT22;10181;48.072;9.884;2023-12-20T12:17:16;4.70;99.90
20041;DHT22;10181;48.072;9.884;2023-12-20T12:19:43;4.60;99.90
20041;DHT22;10181;48.072;9.884;2023-12-20T12:22:10;4.60;99.90
20041;DHT22;10181;48.072;9.884;2023-12-20T12:24:45;4.60;99.90
20041;DHT22;10181;48.072;9.884;2023-12-20T12:27:12;4.60;99.90
20041;DHT22;10181;48.072;9.884;2023-12-20T12:29:37;4.60;99.90
20041;DHT22;10181;48.072;9.884;2023-12-20T12:32:07;4.60;99.90
20041;DHT22;10181;48.072;9.884;2023-12-20T12:34:36;4.60;99.90
20041;DHT22;10181;48.072;9.884;2023-12-20T12:37:04;4.70;99.90
20041;DHT22;10181;48.072;9.884;2023-12-20T12:39:30;4.70;99.90
20041;DHT22;10181;48.072;9.884;2023-12-20T12:41:56;4.70;99.90
20041;DHT22;10181;48.072;9.884;2023-12-20T12:44:22;4.70;99.90
20041;DHT22;10181;48.072;9.884;2023-12-20T12:46:50;4.60;99.90
20041;DHT22;10181;48.072;9.884;2023-12-20T12:49:16;4.60;99.90
20041;DHT22;10181;48.072;9.884;2023-12-20T12:51:43;4.60;99.90
20041;DHT22;10181;48.072;9.884;2023-12-20T12:54:09;4.60;99.90
20041;DHT22;10181;48.072;9.884;2023-12-20T12:56:35;4.60;99.90
20041;DHT22;10181;48.072;9.884;2023-12-20T12:59:01;4.70;99.90
20041;DHT22;10181;48.072;9.884;2023-12-20T13:01:27;4.90;99.90
20041;DHT22;10181;48.072;9.884;2023-12-20T13:03:52;4.90;99.90
20041;DHT22;10181;48.072;9.884;2023-12-20T13:06:18;5.10;99.90
20041;DHT22;10181;48.072;9.884;2023-12-20T13:08:44;5.20;99.90
20041;DHT22;10181;48.072;9.884;2023-12-20T13:11:10;5.20;99.90
20041;DHT22;10181;48.072;9.884;2023-12-20T13:13:36;5.10;99.90
20041;DHT22;10181;48.072;9.884;2023-12-20T13:16:02;5.10;99.90
20041;DHT22;10181;48.072;9.884;2023-12-20T13:18:27;5.10;99.90
20041;DHT22;10181;48.072;9.884;2023-12-20T13:20:53;5.00;99.90
20041;DHT22;10181;48.072;9.884;2023-12-20T13:23:19;5.00;99.90
20041;DHT22;10181;48.072;9.884;2023-12-20T13:25:46;5.10;99.90
20041;DHT22;10181;48.072;9.884;2023-12-20T13:28:12;5.00;99.90
20041;DHT22;10181;48.072;9.884;2023-12-20T13:30:38;5.00;99.90
20041;DHT22;10181;48.072;9.884;2023-12-20T13:33:04;5.00;99.90
20041;DHT22;10181;48.072;9.884;2023-12-20T13:35:31;5.00;99.90
20041;DHT22;10181;48.072;9.884;2023-12-20T13:37:57;5.00;99.90
20041;DHT22;10181;48.072;9.884;2023-12-20T13:40:23;5.00;99.90
20041;DHT22;10181;48.072;9.884;2023-12-20T13:42:49;5.00;99.90
20041;DHT22;10181;48.072;9.884;2023-12-20T13:45:14;5.00;99.90
20041;DHT22;10181;48.072;9.884;2023-12-20T13:47:40;4.90;99.90
20041;DHT22;10181;48.072;9.884;2023-12-20T13:50:06;4.90;99.90
20041;DHT22;10181;48.072;9.884;2023-12-20T13:52:31;4.90;99.90
20041;DHT22;10181;48.072;9.884;2023-12-20T13:54:57;4.80;99.90
20041;DHT22;10181;48.072;9.884;2023-12-20T13:57:23;4.70;99.90
20041;DHT22;10181;48.072;9.884;2023-12-20T13:59:48;4.70;99.90
20041;DHT22;10181;48.072;9.884;2023-12-20T14:02:14;4.60;99.90
20041;DHT22;10181;48.072;9.884;2023-12-20T14:04:40;4.60;99.90
20041;DHT22;10181;48.072;9.884;2023-12-20T14:07:06;4.50;99.90
20041;DHT22;10181;48.072;9.884;2023-12-20T14:09:33;4.50;99.90
20041;DHT22;10181;48.072;9.884;2023-12-20T14:11:59;4.50;99.90
20041;DHT22;10181;48.072;9.884;2023-12-20T14:14:24;4.60;99.90
20041;DHT22;10181;48.072;9.884;2023-12-20T14:16:50;4.50;99.90
20041;DHT22;10181;48.072;9.884;2023-12-20T14:19:16;4.50;99.90
20041;DHT22;10181;48.072;9.884;2023-12-20T14:21:42;4.40;99.90
20041;DHT22;10181;48.072;9.884;2023-12-20T14:24:07;4.50;99.90
20041;DHT22;10181;48.072;9.884;2023-12-20T14:26:33;4.50;99.90
20041;DHT22;10181;48.072;9.884;2023-12-20T14:28:59;4.60;99.90
20041;DHT22;10181;48.072;9.884;2023-12-20T14:31:24;4.50;99.90
20041;DHT22;10181;48.072;9.884;2023-12-20T14:33:50;4.50;99.90
20041;DHT22;10181;48.072;9.884;2023-12-20T14:36:18;4.50;99.90
20041;DHT22;10181;48.072;9.884;2023-12-20T14:38:45;4.40;99.90
20041;DHT22;10181;48.072;9.884;2023-12-20T14:41:12;4.40;99.90
20041;DHT22;10181;48.072;9.884;2023-12-20T14:43:38;4.40;99.90
20041;DHT22;10181;48.072;9.884;2023-12-20T14:46:03;4.40;99.90
20041;DHT22;10181;48.072;9.884;2023-12-20T14:48:31;4.40;99.90
20041;DHT22;10181;48.072;9.884;2023-12-20T14:50:57;4.30;99.90
20041;DHT22;10181;48.072;9.884;2023-12-20T14:53:24;4.30;99.90
20041;DHT22;10181;48.072;9.884;2023-12-20T14:55:50;4.20;99.90
20041;DHT22;10181;48.072;9.884;2023-12-20T14:58:16;4.20;99.90
20041;DHT22;10181;48.072;9.884;2023-12-20T15:00:42;4.20;99.90
20041;DHT22;10181;48.072;9.884;2023-12-20T15:03:09;4.20;99.90
20041;DHT22;10181;48.072;9.884;2023-12-20T15:05:34;4.10;99.90
20041;DHT22;10181;48.072;9.884;2023-12-20T15:08:01;4.10;99.90
20041;DHT22;10181;48.072;9.884;2023-12-20T15:10:27;4.00;99.90
20041;DHT22;10181;48.072;9.884;2023-12-20T15:12:52;3.90;99.90
20041;DHT22;10181;48.072;9.884;2023-12-20T15:15:18;3.90;99.90
20041;DHT22;10181;48.072;9.884;2023-12-20T15:17:44;3.80;99.90
20041;DHT22;10181;48.072;9.884;2023-12-20T15:20:10;3.70;99.90
20041;DHT22;10181;48.072;9.884;2023-12-20T15:22:36;3.70;99.90
20041;DHT22;10181;48.072;9.884;2023-12-20T15:25:03;3.60;99.90
20041;DHT22;10181;48.072;9.884;2023-12-20T15:27:31;3.70;99.90
20041;DHT22;10181;48.072;9.884;2023-12-20T15:29:56;3.70;99.90
20041;DHT22;10181;48.072;9.884;2023-12-20T15:32:22;3.60;99.90
20041;DHT22;10181;48.072;9.884;2023-12-20T15:34:48;3.60;99.90
20041;DHT22;10181;48.072;9.884;2023-12-20T15:37:14;3.60;99.90
20041;DHT22;10181;48.072;9.884;2023-12-20T15:39:41;3.60;99.90